ROMMA est une association bénévole à but non lucratif. Votre soutien est indispensable : ADHERER à ROMMA ou FAIRE un DON

St-Christophe/Guiers - Berland - (38, Isère)

Massif de la Chartreuse (533 m)   Longitude: 05° 46' 44" E   Latitude: 45° 25' 43" N Station partenaire n°32
 

Détail journalier du     <<     >>

Température Precipitation Humidité Pression Vent Dir Rafale Dir. rafale Ensol.
Heure (°C) (mm) (%) (hPa) (km/h) (km/h) (min)
01:00 1.308510059E23ENE0
02:00 1.2085100511ENE31ENE0
03:00 1.2082100515ENE32E0
04:00 0.7084100512ENE26E0
05:00 0.3084100513ENE29ENE0
06:00 0.3085100410ENE23ENE0
07:00 0.208610049ENE23NNE0
08:00 -0.1085100410NE21ENE0
09:00 1.308410059ENE24NE45
10:00 2.308110048E21ENE55
11:00 3.4078100513NE29NE60
12:00 4.407510059NE26NE60
13:00 5.707310055O21ENE60
14:00 7.207010044ONO10OSO60
15:00 8.906510043OSO10OSO55
16:00 10.206110033ONO18NNO60
17:00 9.806010026N23N55
18:00 9.805910029NE23NNE30
19:00 9.8062100211NNE27N60
20:00 7.8074100310NE26NE45
21:00 6.2080100310ENE18NE0
22:00 5.408310045ENE15ESE0
23:00 4.808210047ENE16ENE0
minuit 4.708510055ENE15ENE0

Graphique du 05-04-2019

 

Serveur OMMA